Flight Track Log - Related Links

Times and Time Zones

All times are in EDT time to prevent confusion due to time zone crossing. See the JBU185 flight status page for this flight to view local times or setup timezone preferences in your user account.

Time Position Orientation Groundspeed Altitude Reporting Facility
EDT Latitude Longitude Course Direction KTS MPH feet Rate Location/Type
Mon 06:12:51 AM 43.0975 -77.6972 121° Southeast 164 189 1,300  Level Cleveland Center
Mon 06:13:45 AM 43.0625 -77.7189 204° Southwest 188 216 2,500 1,774 Climbing Cleveland Center
Mon 06:14:46 AM 43.0253 -77.6439 124° Southeast 259 298 4,700 2,408 Climbing Cleveland Center
Mon 06:16:00 AM 42.9323 -77.2580 127° Southeast  Level FlightAware Approximate
Mon 06:16:12 AM 42.9864 -77.5122 112° Southeast 302 348 8,400  Level Cleveland Center
Mon 06:17:00 AM 42.8853 -77.1557 114° Southeast  Level FlightAware Approximate
Mon 06:18:00 AM 42.8396 -77.0516 121° Southeast  Level FlightAware Approximate
Mon 06:18:05 AM 42.9164 -77.2861 113° Southeast 316 364 13,100  Level Boston Center
Mon 06:19:05 AM 42.8736 -77.1581 114° Southeast 349 402 15,500 2,350 Climbing Boston Center
Mon 06:20:05 AM 42.8314 -77.0217 113° Southeast 372 428 17,800 2,300 Climbing Boston Center
Mon 06:21:05 AM 42.7781 -76.8933 119° Southeast 383 441 20,100 1,600 Climbing Boston Center
Mon 06:22:05 AM 42.7225 -76.7647 120° Southeast 390 449 21,000 450 Climbing Boston Center
Mon 06:23:05 AM 42.6647 -76.6336 121° Southeast 395 455 21,000  Level Boston Center
Mon 06:24:05 AM 42.6069 -76.5083 122° Southeast 400 460 21,000  Level Boston Center
Mon 06:25:05 AM 42.5489 -76.3778 121° Southeast 400 460 21,000  Level Boston Center
Mon 06:26:17 AM 42.4928 -76.2531 121° Southeast 400 460 21,000  Level Boston Center
Mon 06:27:17 AM 42.4267 -76.1083 122° Southeast 400 460 21,000  Level Boston Center
Mon 06:28:17 AM 42.3681 -75.9811 122° Southeast 405 466 21,000  Level Boston Center
Mon 06:29:17 AM 42.3094 -75.8542 122° Southeast 400 460 21,000  Level Boston Center
Mon 06:30:17 AM 42.2586 -75.7392 121° Southeast 405 466 21,000  Level Boston Center
Mon 06:31:17 AM 42.1881 -75.5814 121° Southeast 405 466 21,000  Level Boston Center
Mon 06:32:17 AM 42.1269 -75.4550 123° Southeast 405 466 21,000  Level Boston Center
Mon 06:33:17 AM 42.0678 -75.3264 122° Southeast 405 466 21,000  Level Boston Center
Mon 06:34:17 AM 42.0294 -75.1878 110° East 399 459 21,000  Level Boston Center
Mon 06:35:17 AM 41.9933 -75.0381 108° East 399 459 21,000  Level Boston Center
Mon 06:36:17 AM 41.9547 -74.8967 110° East 405 466 21,000  Level Boston Center
Mon 06:37:17 AM 41.9142 -74.7472 110° East 410 472 21,000  Level Boston Center
Mon 06:38:17 AM 41.8775 -74.6039 109° East 415 478 21,000 -50 Level Boston Center
Mon 06:39:17 AM 41.8342 -74.4575 112° Southeast 415 478 20,900 -385 Descending Boston Center
Mon 06:40:53 AM 41.7078 -74.3275 142° Southeast 379 436 20,000 -351 Descending New York Center
Mon 06:41:51 AM 41.6142 -74.2506 148° Southeast 385 443 20,000  Level New York Center
Mon 06:42:51 AM 41.5147 -74.1650 147° Southeast 390 449 20,000  Level New York Center
Mon 06:43:52 AM 41.4211 -74.0883 148° Southeast 390 449 20,000  Level New York Center
Mon 06:44:52 AM 41.3153 -74.0719 173° South 369 425 20,000 -298 Level New York Center
Mon 06:45:53 AM 41.2108 -74.0917 188° South 369 425 19,400 -496 Descending New York Center
Mon 06:46:53 AM 41.1000 -74.1000 183° South 371 427 19,000 -200 Descending New York TRACON
Mon 06:47:53 AM 41.0000 -74.1167 187° South 362 417 19,000  Level New York TRACON
Mon 06:48:53 AM 40.9167 -74.0833 163° South 326 375 19,000 -650 Level New York TRACON
Mon 06:49:53 AM 40.8333 -74.0500 163° South 317 365 17,700 -1,421 Descending New York TRACON
Mon 06:50:47 AM 40.7500 -74.0167 163° South 307 353 16,300 -1,684 Descending New York TRACON
Mon 06:51:47 AM 40.6667 -73.9667 156° South 311 358 14,500 -1,650 Descending New York TRACON
Mon 06:52:47 AM 40.6000 -73.9333 159° South 306 352 13,000 -1,650 Descending New York TRACON
Mon 06:53:47 AM 40.5167 -73.9000 163° South 291 335 11,200 -1,750 Descending New York TRACON
Mon 06:54:47 AM 40.4500 -73.8500 150° Southeast 300 345 9,500 -1,737 Descending New York TRACON
Mon 06:55:41 AM 40.4000 -73.7833 135° Southeast 304 350 7,900 -1,632 Descending New York TRACON
Mon 06:56:41 AM 40.3500 -73.7000 128° Southeast 295 339 6,400 -1,500 Descending New York TRACON
Mon 06:57:41 AM 40.3667 -73.6000 78° East 311 358 4,900 -1,200 Descending New York TRACON
Mon 06:58:41 AM 40.4333 -73.5500 30° Northeast 279 321 4,000 -556 Descending New York TRACON
Mon 06:59:29 AM 40.5000 -73.5333 11° North 279 321 3,900 -556 Descending New York TRACON
Mon 07:00:29 AM 40.5667 -73.5333 360° North 263 303 3,000 -450 Descending New York TRACON
Mon 07:01:29 AM 40.6333 -73.5333 360° North 226 260 3,000  Level New York TRACON
Mon 07:02:29 AM 40.6833 -73.5333 360° North 191 220 3,000  Level New York TRACON
Mon 07:03:23 AM 40.7333 -73.5333 360° North 192 221 3,000  Level New York TRACON
Mon 07:04:23 AM 40.7833 -73.5667 333° Northwest 185 213 3,000 -500 Level New York TRACON
Mon 07:05:23 AM 40.7833 -73.6333 270° West 180 207 2,000 -526 Descending New York TRACON
Mon 07:06:17 AM 40.7500 -73.6667 217° Southwest 186 214 2,000 -278 Level New York TRACON
Mon 07:07:11 AM 40.7167 -73.7000 217° Southwest 185 213 1,500 -684 Descending New York TRACON
Mon 07:08:11 AM 40.6833 -73.7333 217° Southwest 136 157 700 -800 Descending New York TRACON

Login

Don't have an account? Register now (free) for customized features, flight alerts, and more!